sensor_id;sensor_type;location;lat;lon;timestamp;pressure;altitude;pressure_sealevel;temperature;humidity
37856;BME280;23694;43.274;26.924;2023-05-29T00:01:22;98588.16;;;17.14;100.00
37856;BME280;23694;43.274;26.924;2023-05-29T00:03:50;98592.94;;;17.10;100.00
37856;BME280;23694;43.274;26.924;2023-05-29T00:06:16;98596.78;;;17.16;100.00
37856;BME280;23694;43.274;26.924;2023-05-29T00:08:42;98589.91;;;17.05;100.00
37856;BME280;23694;43.274;26.924;2023-05-29T00:11:08;98588.69;;;17.18;100.00
37856;BME280;23694;43.274;26.924;2023-05-29T00:13:34;98595.69;;;17.27;100.00
37856;BME280;23694;43.274;26.924;2023-05-29T00:16:01;98594.69;;;17.28;100.00
37856;BME280;23694;43.274;26.924;2023-05-29T00:18:29;98604.97;;;17.31;100.00
37856;BME280;23694;43.274;26.924;2023-05-29T00:20:55;98602.38;;;17.39;100.00
37856;BME280;23694;43.274;26.924;2023-05-29T00:23:21;98607.97;;;17.36;100.00
37856;BME280;23694;43.274;26.924;2023-05-29T00:25:47;98605.34;;;17.36;100.00
37856;BME280;23694;43.274;26.924;2023-05-29T00:28:13;98602.22;;;17.40;100.00
37856;BME280;23694;43.274;26.924;2023-05-29T00:30:40;98598.06;;;17.38;100.00
37856;BME280;23694;43.274;26.924;2023-05-29T00:33:06;98609.19;;;17.41;100.00
37856;BME280;23694;43.274;26.924;2023-05-29T00:35:32;98610.47;;;17.37;100.00
37856;BME280;23694;43.274;26.924;2023-05-29T00:37:58;98597.81;;;17.23;100.00
37856;BME280;23694;43.274;26.924;2023-05-29T00:40:25;98606.44;;;17.25;100.00
37856;BME280;23694;43.274;26.924;2023-05-29T00:42:52;98600.16;;;17.26;100.00
37856;BME280;23694;43.274;26.924;2023-05-29T00:45:18;98593.56;;;17.30;100.00
37856;BME280;23694;43.274;26.924;2023-05-29T00:47:44;98593.41;;;17.32;100.00
37856;BME280;23694;43.274;26.924;2023-05-29T00:50:12;98598.16;;;17.28;100.00
37856;BME280;23694;43.274;26.924;2023-05-29T00:52:40;98592.03;;;17.28;100.00
37856;BME280;23694;43.274;26.924;2023-05-29T00:55:08;98600.66;;;17.30;100.00
37856;BME280;23694;43.274;26.924;2023-05-29T00:57:35;98598.00;;;17.30;100.00
37856;BME280;23694;43.274;26.924;2023-05-29T01:00:05;98596.19;;;17.30;100.00
37856;BME280;23694;43.274;26.924;2023-05-29T01:02:37;98593.72;;;17.29;100.00
37856;BME280;23694;43.274;26.924;2023-05-29T01:05:05;98597.69;;;17.33;100.00
37856;BME280;23694;43.274;26.924;2023-05-29T01:07:32;98586.97;;;17.34;100.00
37856;BME280;23694;43.274;26.924;2023-05-29T01:09:58;98578.50;;;17.31;100.00
37856;BME280;23694;43.274;26.924;2023-05-29T01:27:55;98564.63;;;17.37;100.00
37856;BME280;23694;43.274;26.924;2023-05-29T01:30:28;98562.94;;;17.28;100.00
37856;BME280;23694;43.274;26.924;2023-05-29T01:32:54;98558.00;;;17.33;100.00
37856;BME280;23694;43.274;26.924;2023-05-29T01:35:21;98556.53;;;17.38;100.00
37856;BME280;23694;43.274;26.924;2023-05-29T01:37:47;98560.59;;;17.25;100.00
37856;BME280;23694;43.274;26.924;2023-05-29T01:40:13;98552.13;;;17.21;100.00
37856;BME280;23694;43.274;26.924;2023-05-29T01:42:39;98559.75;;;17.24;100.00
37856;BME280;23694;43.274;26.924;2023-05-29T01:45:06;98570.81;;;17.20;100.00
37856;BME280;23694;43.274;26.924;2023-05-29T01:47:33;98575.75;;;17.15;100.00
37856;BME280;23694;43.274;26.924;2023-05-29T01:50:00;98576.53;;;17.07;100.00
37856;BME280;23694;43.274;26.924;2023-05-29T01:52:26;98575.03;;;17.04;100.00
37856;BME280;23694;43.274;26.924;2023-05-29T01:54:52;98580.47;;;17.03;100.00
37856;BME280;23694;43.274;26.924;2023-05-29T01:57:18;98572.31;;;16.96;100.00
37856;BME280;23694;43.274;26.924;2023-05-29T01:59:46;98582.22;;;16.94;100.00
37856;BME280;23694;43.274;26.924;2023-05-29T02:02:12;98579.72;;;16.93;100.00
37856;BME280;23694;43.274;26.924;2023-05-29T02:04:38;98579.72;;;16.93;100.00
37856;BME280;23694;43.274;26.924;2023-05-29T02:07:04;98582.22;;;16.94;100.00
37856;BME280;23694;43.274;26.924;2023-05-29T02:09:33;98587.88;;;16.82;100.00
37856;BME280;23694;43.274;26.924;2023-05-29T02:11:59;98584.63;;;16.88;100.00
37856;BME280;23694;43.274;26.924;2023-05-29T02:14:26;98594.94;;;16.91;100.00
37856;BME280;23694;43.274;26.924;2023-05-29T02:16:52;98583.38;;;16.92;100.00
37856;BME280;23694;43.274;26.924;2023-05-29T02:19:19;98586.00;;;16.92;100.00
37856;BME280;23694;43.274;26.924;2023-05-29T02:21:46;98591.28;;;16.92;100.00
37856;BME280;23694;43.274;26.924;2023-05-29T02:24:13;98590.59;;;16.90;100.00
37856;BME280;23694;43.274;26.924;2023-05-29T02:26:39;98593.22;;;16.90;100.00
37856;BME280;23694;43.274;26.924;2023-05-29T02:29:05;98587.25;;;16.88;100.00
37856;BME280;23694;43.274;26.924;2023-05-29T02:31:32;98590.31;;;16.93;100.00
37856;BME280;23694;43.274;26.924;2023-05-29T02:33:58;98593.03;;;17.01;100.00
37856;BME280;23694;43.274;26.924;2023-05-29T02:36:24;98591.09;;;17.11;100.00
37856;BME280;23694;43.274;26.924;2023-05-29T02:38:51;98591.63;;;17.15;100.00
37856;BME280;23694;43.274;26.924;2023-05-29T02:41:17;98587.41;;;17.04;100.00
37856;BME280;23694;43.274;26.924;2023-05-29T02:43:43;98593.84;;;17.01;100.00
37856;BME280;23694;43.274;26.924;2023-05-29T02:46:09;98607.28;;;17.08;100.00
37856;BME280;23694;43.274;26.924;2023-05-29T02:48:35;98602.69;;;17.10;100.00
37856;BME280;23694;43.274;26.924;2023-05-29T02:51:01;98603.44;;;17.02;100.00
37856;BME280;23694;43.274;26.924;2023-05-29T02:53:27;98597.69;;;17.07;100.00
37856;BME280;23694;43.274;26.924;2023-05-29T02:55:53;98595.88;;;17.07;100.00
37856;BME280;23694;43.274;26.924;2023-05-29T02:58:20;98597.78;;;16.97;100.00
37856;BME280;23694;43.274;26.924;2023-05-29T03:00:47;98593.75;;;17.11;100.00
37856;BME280;23694;43.274;26.924;2023-05-29T03:03:13;98599.03;;;17.11;100.00
37856;BME280;23694;43.274;26.924;2023-05-29T03:05:39;98609.00;;;17.17;100.00
37856;BME280;23694;43.274;26.924;2023-05-29T03:08:05;98606.06;;;17.20;100.00
37856;BME280;23694;43.274;26.924;2023-05-29T03:10:31;98608.72;;;17.20;100.00
37856;BME280;23694;43.274;26.924;2023-05-29T03:12:57;98601.59;;;17.21;100.00
37856;BME280;23694;43.274;26.924;2023-05-29T03:15:23;98606.84;;;17.13;100.00
37856;BME280;23694;43.274;26.924;2023-05-29T03:17:49;98618.25;;;17.13;100.00
37856;BME280;23694;43.274;26.924;2023-05-29T03:20:15;98610.66;;;16.92;100.00
37856;BME280;23694;43.274;26.924;2023-05-29T03:22:41;98611.00;;;16.97;100.00
37856;BME280;23694;43.274;26.924;2023-05-29T03:25:08;98619.63;;;16.99;100.00
37856;BME280;23694;43.274;26.924;2023-05-29T03:27:34;98619.38;;;17.10;100.00
37856;BME280;23694;43.274;26.924;2023-05-29T03:30:00;98627.03;;;17.14;100.00
37856;BME280;23694;43.274;26.924;2023-05-29T03:32:26;98623.47;;;17.05;100.00
37856;BME280;23694;43.274;26.924;2023-05-29T03:34:53;98622.81;;;17.03;100.00
37856;BME280;23694;43.274;26.924;2023-05-29T03:37:19;98619.47;;;17.01;100.00
37856;BME280;23694;43.274;26.924;2023-05-29T03:39:45;98624.16;;;17.07;100.00
37856;BME280;23694;43.274;26.924;2023-05-29T03:42:13;98620.13;;;17.21;100.00
37856;BME280;23694;43.274;26.924;2023-05-29T03:44:39;98622.81;;;17.29;100.00
37856;BME280;23694;43.274;26.924;2023-05-29T03:47:05;98623.72;;;17.37;100.00
37856;BME280;23694;43.274;26.924;2023-05-29T03:49:31;98622.63;;;17.22;100.00
37856;BME280;23694;43.274;26.924;2023-05-29T03:51:57;98631.06;;;17.26;100.00
37856;BME280;23694;43.274;26.924;2023-05-29T03:54:23;98634.31;;;17.37;100.00
37856;BME280;23694;43.274;26.924;2023-05-29T03:56:49;98636.28;;;17.35;100.00
37856;BME280;23694;43.274;26.924;2023-05-29T03:59:15;98640.28;;;17.39;100.00
37856;BME280;23694;43.274;26.924;2023-05-29T04:01:41;98639.97;;;17.42;100.00
37856;BME280;23694;43.274;26.924;2023-05-29T04:04:07;98634.03;;;17.49;100.00
37856;BME280;23694;43.274;26.924;2023-05-29T04:06:34;98633.78;;;17.34;100.00
37856;BME280;23694;43.274;26.924;2023-05-29T04:09:05;98632.13;;;17.33;100.00
37856;BME280;23694;43.274;26.924;2023-05-29T04:11:35;98633.94;;;17.32;100.00
37856;BME280;23694;43.274;26.924;2023-05-29T04:14:01;98632.53;;;17.46;100.00
37856;BME280;23694;43.274;26.924;2023-05-29T04:16:28;98635.94;;;17.56;100.00
37856;BME280;23694;43.274;26.924;2023-05-29T04:18:55;98628.28;;;17.71;100.00
37856;BME280;23694;43.274;26.924;2023-05-29T04:21:21;98629.03;;;17.89;100.00
37856;BME280;23694;43.274;26.924;2023-05-29T04:23:47;98637.16;;;17.96;100.00
37856;BME280;23694;43.274;26.924;2023-05-29T04:26:14;98633.53;;;17.97;100.00
37856;BME280;23694;43.274;26.924;2023-05-29T04:28:40;98624.44;;;18.08;100.00
37856;BME280;23694;43.274;26.924;2023-05-29T04:31:08;98622.50;;;18.18;100.00
37856;BME280;23694;43.274;26.924;2023-05-29T04:33:34;98630.38;;;18.35;100.00
37856;BME280;23694;43.274;26.924;2023-05-29T04:36:03;98630.41;;;18.60;100.00
37856;BME280;23694;43.274;26.924;2023-05-29T04:38:29;98631.94;;;18.62;96.11
37856;BME280;23694;43.274;26.924;2023-05-29T04:40:56;98637.81;;;18.90;95.93
37856;BME280;23694;43.274;26.924;2023-05-29T04:43:24;98633.50;;;19.22;94.81
37856;BME280;23694;43.274;26.924;2023-05-29T04:45:52;98642.28;;;19.30;92.42
37856;BME280;23694;43.274;26.924;2023-05-29T04:48:19;98637.81;;;19.07;92.64
37856;BME280;23694;43.274;26.924;2023-05-29T04:50:45;98644.13;;;19.14;92.94
37856;BME280;23694;43.274;26.924;2023-05-29T04:53:11;98642.47;;;19.13;93.52
37856;BME280;23694;43.274;26.924;2023-05-29T04:55:37;98635.31;;;19.21;92.32
37856;BME280;23694;43.274;26.924;2023-05-29T04:58:03;98642.78;;;19.10;93.27
37856;BME280;23694;43.274;26.924;2023-05-29T05:00:29;98643.47;;;19.04;93.16
37856;BME280;23694;43.274;26.924;2023-05-29T05:02:55;98638.75;;;18.73;96.88
37856;BME280;23694;43.274;26.924;2023-05-29T05:05:22;98642.16;;;18.49;97.01
37856;BME280;23694;43.274;26.924;2023-05-29T05:07:48;98638.25;;;18.61;97.38
37856;BME280;23694;43.274;26.924;2023-05-29T05:10:14;98641.25;;;18.75;97.34
37856;BME280;23694;43.274;26.924;2023-05-29T05:12:40;98646.22;;;18.78;96.84
37856;BME280;23694;43.274;26.924;2023-05-29T05:15:06;98640.41;;;18.74;96.44
37856;BME280;23694;43.274;26.924;2023-05-29T05:17:33;98630.19;;;18.95;96.98
37856;BME280;23694;43.274;26.924;2023-05-29T05:19:59;98639.31;;;19.09;95.42
37856;BME280;23694;43.274;26.924;2023-05-29T05:22:25;98630.50;;;19.25;95.59
37856;BME280;23694;43.274;26.924;2023-05-29T05:24:51;98624.16;;;19.75;92.42
37856;BME280;23694;43.274;26.924;2023-05-29T05:27:22;98637.97;;;20.17;89.33
37856;BME280;23694;43.274;26.924;2023-05-29T05:29:48;98635.63;;;20.14;87.75
37856;BME280;23694;43.274;26.924;2023-05-29T05:32:14;98634.09;;;19.81;89.75
37856;BME280;23694;43.274;26.924;2023-05-29T05:34:40;98635.59;;;19.83;90.79
37856;BME280;23694;43.274;26.924;2023-05-29T05:37:07;98636.31;;;19.61;91.76
37856;BME280;23694;43.274;26.924;2023-05-29T05:39:33;98639.25;;;19.50;90.63
37856;BME280;23694;43.274;26.924;2023-05-29T05:41:59;98636.97;;;19.39;92.14
37856;BME280;23694;43.274;26.924;2023-05-29T05:44:25;98634.94;;;19.49;92.86
37856;BME280;23694;43.274;26.924;2023-05-29T05:46:51;98634.31;;;19.39;94.34
37856;BME280;23694;43.274;26.924;2023-05-29T05:49:18;98632.66;;;19.29;96.06
37856;BME280;23694;43.274;26.924;2023-05-29T05:51:44;98639.63;;;19.30;94.76
37856;BME280;23694;43.274;26.924;2023-05-29T05:54:10;98643.91;;;19.48;93.84
37856;BME280;23694;43.274;26.924;2023-05-29T05:56:36;98642.63;;;19.60;92.84
37856;BME280;23694;43.274;26.924;2023-05-29T05:59:02;98636.97;;;19.63;91.91
37856;BME280;23694;43.274;26.924;2023-05-29T06:01:29;98642.94;;;19.65;93.16
37856;BME280;23694;43.274;26.924;2023-05-29T06:03:55;98635.94;;;19.72;92.13
37856;BME280;23694;43.274;26.924;2023-05-29T06:06:21;98636.41;;;19.84;91.43
37856;BME280;23694;43.274;26.924;2023-05-29T06:08:47;98637.97;;;19.62;92.09
37856;BME280;23694;43.274;26.924;2023-05-29T06:11:13;98643.91;;;19.72;93.16
37856;BME280;23694;43.274;26.924;2023-05-29T06:13:39;98645.88;;;19.86;93.12
37856;BME280;23694;43.274;26.924;2023-05-29T06:16:05;98644.91;;;19.71;91.49
37856;BME280;23694;43.274;26.924;2023-05-29T06:18:31;98649.91;;;19.66;92.78
37856;BME280;23694;43.274;26.924;2023-05-29T06:20:57;98657.34;;;19.79;91.48
37856;BME280;23694;43.274;26.924;2023-05-29T06:23:23;98643.66;;;19.98;90.97
37856;BME280;23694;43.274;26.924;2023-05-29T06:25:49;98649.47;;;20.02;90.13
37856;BME280;23694;43.274;26.924;2023-05-29T06:28:15;98648.47;;;20.03;89.29
37856;BME280;23694;43.274;26.924;2023-05-29T06:30:42;98651.09;;;20.11;90.21
37856;BME280;23694;43.274;26.924;2023-05-29T06:33:08;98643.38;;;20.40;88.85
37856;BME280;23694;43.274;26.924;2023-05-29T06:35:34;98640.47;;;20.81;85.60
37856;BME280;23694;43.274;26.924;2023-05-29T06:38:00;98642.69;;;20.69;85.49
37856;BME280;23694;43.274;26.924;2023-05-29T06:40:26;98651.44;;;20.86;85.32
37856;BME280;23694;43.274;26.924;2023-05-29T06:42:52;98651.50;;;20.70;84.59
37856;BME280;23694;43.274;26.924;2023-05-29T06:45:19;98645.88;;;20.65;85.81
37856;BME280;23694;43.274;26.924;2023-05-29T06:47:45;98656.28;;;20.51;85.39
37856;BME280;23694;43.274;26.924;2023-05-29T06:50:11;98659.16;;;20.42;87.93
37856;BME280;23694;43.274;26.924;2023-05-29T06:52:38;98655.34;;;20.36;87.58
37856;BME280;23694;43.274;26.924;2023-05-29T06:55:04;98648.19;;;20.37;87.84
37856;BME280;23694;43.274;26.924;2023-05-29T06:57:31;98652.84;;;20.35;88.43
37856;BME280;23694;43.274;26.924;2023-05-29T06:59:57;98651.19;;;20.34;88.96
37856;BME280;23694;43.274;26.924;2023-05-29T07:02:23;98657.56;;;20.24;89.45
37856;BME280;23694;43.274;26.924;2023-05-29T07:04:50;98660.56;;;20.21;89.51
37856;BME280;23694;43.274;26.924;2023-05-29T07:07:16;98665.41;;;20.10;89.90
37856;BME280;23694;43.274;26.924;2023-05-29T07:09:42;98668.91;;;20.02;90.51
37856;BME280;23694;43.274;26.924;2023-05-29T07:12:10;98663.94;;;19.99;90.36
37856;BME280;23694;43.274;26.924;2023-05-29T07:14:36;98671.94;;;19.91;89.68
37856;BME280;23694;43.274;26.924;2023-05-29T07:17:02;98669.44;;;19.89;89.77
37856;BME280;23694;43.274;26.924;2023-05-29T07:19:28;98673.06;;;20.05;90.01
37856;BME280;23694;43.274;26.924;2023-05-29T07:21:55;98679.03;;;20.07;89.60
37856;BME280;23694;43.274;26.924;2023-05-29T07:24:21;98675.41;;;20.00;90.24
37856;BME280;23694;43.274;26.924;2023-05-29T07:26:47;98668.44;;;19.99;90.30
37856;BME280;23694;43.274;26.924;2023-05-29T07:29:13;98677.59;;;19.88;90.98
37856;BME280;23694;43.274;26.924;2023-05-29T07:31:40;98682.94;;;19.72;92.24
37856;BME280;23694;43.274;26.924;2023-05-29T07:34:06;98692.59;;;19.56;93.80
37856;BME280;23694;43.274;26.924;2023-05-29T07:36:32;98686.25;;;19.41;94.35
37856;BME280;23694;43.274;26.924;2023-05-29T07:38:58;98691.41;;;19.18;95.70
37856;BME280;23694;43.274;26.924;2023-05-29T07:41:24;98695.72;;;19.03;95.97
37856;BME280;23694;43.274;26.924;2023-05-29T07:43:52;98683.44;;;18.94;96.66
37856;BME280;23694;43.274;26.924;2023-05-29T07:46:18;98694.16;;;18.84;98.09
37856;BME280;23694;43.274;26.924;2023-05-29T07:48:45;98698.53;;;18.93;98.39
37856;BME280;23694;43.274;26.924;2023-05-29T07:51:14;98697.69;;;18.93;99.15
37856;BME280;23694;43.274;26.924;2023-05-29T07:53:40;98693.56;;;18.98;98.50
37856;BME280;23694;43.274;26.924;2023-05-29T07:56:15;98689.56;;;18.94;99.52
37856;BME280;23694;43.274;26.924;2023-05-29T07:58:42;98694.22;;;19.00;97.67
37856;BME280;23694;43.274;26.924;2023-05-29T08:01:09;98698.88;;;19.15;97.46
37856;BME280;23694;43.274;26.924;2023-05-29T08:03:35;98697.22;;;19.22;97.38
37856;BME280;23694;43.274;26.924;2023-05-29T08:06:01;98702.03;;;19.18;97.30
37856;BME280;23694;43.274;26.924;2023-05-29T08:08:27;98705.66;;;19.09;97.69
37856;BME280;23694;43.274;26.924;2023-05-29T08:10:53;98709.63;;;18.97;99.08
37856;BME280;23694;43.274;26.924;2023-05-29T08:13:19;98707.47;;;18.92;99.37
37856;BME280;23694;43.274;26.924;2023-05-29T08:15:45;98711.91;;;18.84;100.00
37856;BME280;23694;43.274;26.924;2023-05-29T08:18:12;98711.06;;;18.83;100.00
37856;BME280;23694;43.274;26.924;2023-05-29T08:20:38;98707.44;;;18.84;100.00
37856;BME280;23694;43.274;26.924;2023-05-29T08:23:04;98712.94;;;18.91;100.00
37856;BME280;23694;43.274;26.924;2023-05-29T08:25:30;98713.78;;;18.91;100.00
37856;BME280;23694;43.274;26.924;2023-05-29T08:27:57;98706.31;;;18.95;100.00
37856;BME280;23694;43.274;26.924;2023-05-29T08:30:23;98709.81;;;18.95;100.00
37856;BME280;23694;43.274;26.924;2023-05-29T08:32:49;98715.47;;;19.09;100.00
37856;BME280;23694;43.274;26.924;2023-05-29T08:35:16;98707.50;;;19.17;100.00
37856;BME280;23694;43.274;26.924;2023-05-29T08:37:42;98717.28;;;19.08;100.00
37856;BME280;23694;43.274;26.924;2023-05-29T08:40:08;98712.63;;;19.10;100.00
37856;BME280;23694;43.274;26.924;2023-05-29T08:42:57;98716.09;;;18.94;100.00
37856;BME280;23694;43.274;26.924;2023-05-29T08:45:24;98715.63;;;18.99;100.00
37856;BME280;23694;43.274;26.924;2023-05-29T08:47:53;98718.22;;;18.83;100.00
37856;BME280;23694;43.274;26.924;2023-05-29T08:50:20;98722.38;;;18.85;100.00
37856;BME280;23694;43.274;26.924;2023-05-29T08:52:47;98721.59;;;18.59;100.00
37856;BME280;23694;43.274;26.924;2023-05-29T08:55:13;98728.03;;;18.48;100.00
37856;BME280;23694;43.274;26.924;2023-05-29T08:57:40;98731.28;;;18.34;100.00
37856;BME280;23694;43.274;26.924;2023-05-29T09:00:09;98736.75;;;18.06;100.00
37856;BME280;23694;43.274;26.924;2023-05-29T09:02:42;98723.38;;;17.82;100.00
37856;BME280;23694;43.274;26.924;2023-05-29T09:05:09;98738.13;;;17.49;100.00
37856;BME280;23694;43.274;26.924;2023-05-29T09:07:36;98736.41;;;17.22;100.00
37856;BME280;23694;43.274;26.924;2023-05-29T09:10:06;98739.38;;;17.19;100.00
37856;BME280;23694;43.274;26.924;2023-05-29T09:12:33;98720.63;;;16.95;100.00
37856;BME280;23694;43.274;26.924;2023-05-29T09:15:00;98722.31;;;16.86;100.00
37856;BME280;23694;43.274;26.924;2023-05-29T09:17:31;98721.34;;;16.87;100.00
37856;BME280;23694;43.274;26.924;2023-05-29T09:19:58;98716.00;;;16.97;100.00
37856;BME280;23694;43.274;26.924;2023-05-29T09:22:24;98715.19;;;16.96;100.00
37856;BME280;23694;43.274;26.924;2023-05-29T09:24:50;98712.63;;;17.04;100.00
37856;BME280;23694;43.274;26.924;2023-05-29T09:27:17;98705.94;;;17.18;100.00
37856;BME280;23694;43.274;26.924;2023-05-29T09:29:45;98703.09;;;17.11;100.00
37856;BME280;23694;43.274;26.924;2023-05-29T09:32:16;98693.63;;;17.27;100.00
37856;BME280;23694;43.274;26.924;2023-05-29T09:34:43;98697.75;;;17.47;100.00
37856;BME280;23694;43.274;26.924;2023-05-29T09:37:10;98692.97;;;17.68;100.00
37856;BME280;23694;43.274;26.924;2023-05-29T09:39:48;98690.38;;;17.77;100.00
37856;BME280;23694;43.274;26.924;2023-05-29T09:42:17;98687.97;;;17.91;100.00
37856;BME280;23694;43.274;26.924;2023-05-29T09:44:50;98684.06;;;18.03;100.00
37856;BME280;23694;43.274;26.924;2023-05-29T09:47:20;98688.50;;;18.29;100.00
37856;BME280;23694;43.274;26.924;2023-05-29T09:49:47;98683.47;;;18.18;100.00
37856;BME280;23694;43.274;26.924;2023-05-29T09:52:14;98679.91;;;18.35;100.00
37856;BME280;23694;43.274;26.924;2023-05-29T09:54:42;98690.56;;;18.43;100.00
37856;BME280;23694;43.274;26.924;2023-05-29T09:57:14;98687.38;;;18.31;100.00
37856;BME280;23694;43.274;26.924;2023-05-29T09:59:45;98693.25;;;18.17;100.00
37856;BME280;23694;43.274;26.924;2023-05-29T10:02:17;98696.53;;;18.11;100.00
37856;BME280;23694;43.274;26.924;2023-05-29T10:04:44;98697.78;;;17.99;100.00
37856;BME280;23694;43.274;26.924;2023-05-29T10:07:24;98711.16;;;17.89;100.00
37856;BME280;23694;43.274;26.924;2023-05-29T10:09:54;98725.19;;;17.82;100.00
37856;BME280;23694;43.274;26.924;2023-05-29T10:12:24;98717.72;;;17.77;100.00
37856;BME280;23694;43.274;26.924;2023-05-29T10:14:56;98715.06;;;17.77;100.00
37856;BME280;23694;43.274;26.924;2023-05-29T10:17:26;98723.56;;;17.89;100.00
37856;BME280;23694;43.274;26.924;2023-05-29T10:19:57;98716.53;;;18.05;100.00
37856;BME280;23694;43.274;26.924;2023-05-29T10:22:25;98709.53;;;17.96;100.00
37856;BME280;23694;43.274;26.924;2023-05-29T10:24:53;98699.97;;;18.03;100.00
37856;BME280;23694;43.274;26.924;2023-05-29T10:27:21;98707.13;;;18.11;100.00
37856;BME280;23694;43.274;26.924;2023-05-29T10:29:59;98705.72;;;18.25;100.00
37856;BME280;23694;43.274;26.924;2023-05-29T10:32:36;98705.06;;;18.23;100.00
37856;BME280;23694;43.274;26.924;2023-05-29T10:35:08;98708.56;;;18.31;100.00
37856;BME280;23694;43.274;26.924;2023-05-29T10:37:54;98700.69;;;18.14;100.00
37856;BME280;23694;43.274;26.924;2023-05-29T10:40:27;98706.94;;;18.04;100.00
37856;BME280;23694;43.274;26.924;2023-05-29T10:42:54;98699.19;;;18.11;100.00
37856;BME280;23694;43.274;26.924;2023-05-29T10:47:56;98703.44;;;18.30;100.00
37856;BME280;23694;43.274;26.924;2023-05-29T10:50:46;98702.28;;;18.32;100.00
37856;BME280;23694;43.274;26.924;2023-05-29T10:53:39;98697.50;;;18.36;100.00
37856;BME280;23694;43.274;26.924;2023-05-29T10:56:14;98694.53;;;18.47;100.00
37856;BME280;23694;43.274;26.924;2023-05-29T10:58:41;98695.69;;;18.45;100.00
37856;BME280;23694;43.274;26.924;2023-05-29T11:01:08;98681.16;;;18.57;100.00
37856;BME280;23694;43.274;26.924;2023-05-29T11:03:34;98682.09;;;18.40;100.00
37856;BME280;23694;43.274;26.924;2023-05-29T11:06:07;98685.59;;;18.48;100.00
37856;BME280;23694;43.274;26.924;2023-05-29T11:12:13;98670.25;;;18.68;100.00
37856;BME280;23694;43.274;26.924;2023-05-29T11:15:03;98678.41;;;18.83;100.00
37856;BME280;23694;43.274;26.924;2023-05-29T11:17:31;98681.22;;;18.81;100.00
37856;BME280;23694;43.274;26.924;2023-05-29T11:20:05;98674.41;;;18.79;100.00
37856;BME280;23694;43.274;26.924;2023-05-29T11:25:23;98674.53;;;18.61;100.00
37856;BME280;23694;43.274;26.924;2023-05-29T11:27:50;98677.72;;;18.64;100.00
37856;BME280;23694;43.274;26.924;2023-05-29T11:30:20;98676.06;;;18.80;100.00
37856;BME280;23694;43.274;26.924;2023-05-29T11:32:47;98673.31;;;18.89;100.00
37856;BME280;23694;43.274;26.924;2023-05-29T11:35:15;98668.31;;;18.86;100.00
37856;BME280;23694;43.274;26.924;2023-05-29T11:37:44;98660.53;;;19.09;100.00
37856;BME280;23694;43.274;26.924;2023-05-29T11:40:13;98662.88;;;19.20;100.00
37856;BME280;23694;43.274;26.924;2023-05-29T11:42:44;98666.50;;;19.19;100.00
37856;BME280;23694;43.274;26.924;2023-05-29T11:45:15;98674.97;;;19.23;100.00
37856;BME280;23694;43.274;26.924;2023-05-29T11:50:27;98682.13;;;19.14;100.00
37856;BME280;23694;43.274;26.924;2023-05-29T11:52:55;98683.78;;;19.07;100.00
37856;BME280;23694;43.274;26.924;2023-05-29T11:55:23;98684.09;;;19.04;100.00
37856;BME280;23694;43.274;26.924;2023-05-29T11:57:50;98677.78;;;19.05;100.00
37856;BME280;23694;43.274;26.924;2023-05-29T12:00:18;98678.78;;;19.04;100.00
37856;BME280;23694;43.274;26.924;2023-05-29T12:02:45;98683.59;;;19.17;100.00
37856;BME280;23694;43.274;26.924;2023-05-29T12:05:16;98676.47;;;19.09;100.00
37856;BME280;23694;43.274;26.924;2023-05-29T12:07:51;98667.69;;;19.09;100.00
37856;BME280;23694;43.274;26.924;2023-05-29T12:10:21;98672.97;;;19.00;100.00
37856;BME280;23694;43.274;26.924;2023-05-29T12:12:52;98666.34;;;18.96;100.00
37856;BME280;23694;43.274;26.924;2023-05-29T12:15:19;98656.41;;;18.98;100.00
37856;BME280;23694;43.274;26.924;2023-05-29T12:17:45;98666.34;;;19.05;100.00
37856;BME280;23694;43.274;26.924;2023-05-29T12:20:13;98659.38;;;18.95;100.00
37856;BME280;23694;43.274;26.924;2023-05-29T12:22:41;98644.63;;;19.01;100.00
37856;BME280;23694;43.274;26.924;2023-05-29T12:25:15;98646.59;;;19.07;100.00
37856;BME280;23694;43.274;26.924;2023-05-29T12:27:43;98647.94;;;19.03;100.00
37856;BME280;23694;43.274;26.924;2023-05-29T12:30:14;98649.59;;;18.96;100.00
37856;BME280;23694;43.274;26.924;2023-05-29T12:32:42;98646.44;;;18.92;100.00
37856;BME280;23694;43.274;26.924;2023-05-29T12:35:20;98654.34;;;18.76;100.00
37856;BME280;23694;43.274;26.924;2023-05-29T12:37:48;98658.81;;;18.76;100.00
37856;BME280;23694;43.274;26.924;2023-05-29T12:40:20;98664.13;;;18.76;100.00
37856;BME280;23694;43.274;26.924;2023-05-29T12:42:48;98659.81;;;18.75;100.00
37856;BME280;23694;43.274;26.924;2023-05-29T12:45:15;98666.28;;;18.80;100.00
37856;BME280;23694;43.274;26.924;2023-05-29T12:47:59;98661.00;;;18.80;100.00
37856;BME280;23694;43.274;26.924;2023-05-29T12:50:38;98665.13;;;18.83;100.00
37856;BME280;23694;43.274;26.924;2023-05-29T12:53:06;98656.34;;;18.82;100.00
37856;BME280;23694;43.274;26.924;2023-05-29T12:55:38;98650.25;;;18.90;100.00
37856;BME280;23694;43.274;26.924;2023-05-29T12:58:05;98654.91;;;18.96;100.00
37856;BME280;23694;43.274;26.924;2023-05-29T13:00:33;98642.28;;;18.90;100.00
37856;BME280;23694;43.274;26.924;2023-05-29T13:02:59;98640.63;;;18.97;100.00
37856;BME280;23694;43.274;26.924;2023-05-29T13:05:27;98644.13;;;19.06;100.00
37856;BME280;23694;43.274;26.924;2023-05-29T13:07:53;98639.47;;;19.16;100.00
37856;BME280;23694;43.274;26.924;2023-05-29T13:10:20;98644.63;;;19.17;100.00
37856;BME280;23694;43.274;26.924;2023-05-29T13:12:48;98646.09;;;19.20;100.00